sensor_id;sensor_type;location;lat;lon;timestamp;P1;durP1;ratioP1;P2;durP2;ratioP2
19621;SDS011;9958;33.196;-97.114;2023-08-30T00:00:00;7.47;;;3.58;;
19621;SDS011;9958;33.196;-97.114;2023-08-30T00:02:29;4.18;;;3.38;;
19621;SDS011;9958;33.196;-97.114;2023-08-30T00:04:58;3.92;;;3.53;;
19621;SDS011;9958;33.196;-97.114;2023-08-30T00:07:26;4.03;;;3.63;;
19621;SDS011;9958;33.196;-97.114;2023-08-30T00:09:57;3.70;;;3.40;;
19621;SDS011;9958;33.196;-97.114;2023-08-30T00:12:26;3.55;;;3.17;;
19621;SDS011;9958;33.196;-97.114;2023-08-30T00:14:54;4.72;;;3.20;;
19621;SDS011;9958;33.196;-97.114;2023-08-30T00:17:23;3.80;;;3.15;;
19621;SDS011;9958;33.196;-97.114;2023-08-30T00:19:51;3.70;;;3.40;;
19621;SDS011;9958;33.196;-97.114;2023-08-30T00:22:21;3.42;;;3.13;;
19621;SDS011;9958;33.196;-97.114;2023-08-30T00:24:49;6.97;;;3.33;;
19621;SDS011;9958;33.196;-97.114;2023-08-30T00:27:19;4.00;;;3.15;;
19621;SDS011;9958;33.196;-97.114;2023-08-30T00:29:47;3.75;;;3.35;;
19621;SDS011;9958;33.196;-97.114;2023-08-30T00:32:16;4.10;;;3.28;;
19621;SDS011;9958;33.196;-97.114;2023-08-30T00:34:45;6.80;;;3.70;;
19621;SDS011;9958;33.196;-97.114;2023-08-30T00:37:13;5.07;;;3.22;;
19621;SDS011;9958;33.196;-97.114;2023-08-30T00:39:41;3.30;;;3.00;;
19621;SDS011;9958;33.196;-97.114;2023-08-30T00:42:10;3.92;;;3.05;;
19621;SDS011;9958;33.196;-97.114;2023-08-30T00:44:40;3.42;;;3.13;;
19621;SDS011;9958;33.196;-97.114;2023-08-30T00:47:08;5.00;;;3.42;;
19621;SDS011;9958;33.196;-97.114;2023-08-30T00:49:36;3.47;;;3.17;;
19621;SDS011;9958;33.196;-97.114;2023-08-30T00:52:09;3.85;;;3.45;;
19621;SDS011;9958;33.196;-97.114;2023-08-30T00:54:38;3.35;;;3.05;;
19621;SDS011;9958;33.196;-97.114;2023-08-30T00:57:06;5.28;;;3.70;;
19621;SDS011;9958;33.196;-97.114;2023-08-30T00:59:35;3.47;;;3.05;;
19621;SDS011;9958;33.196;-97.114;2023-08-30T01:02:06;4.22;;;3.20;;
19621;SDS011;9958;33.196;-97.114;2023-08-30T01:04:34;4.20;;;3.53;;
19621;SDS011;9958;33.196;-97.114;2023-08-30T01:07:03;4.38;;;3.45;;
19621;SDS011;9958;33.196;-97.114;2023-08-30T01:09:31;7.50;;;3.78;;
19621;SDS011;9958;33.196;-97.114;2023-08-30T01:12:00;3.80;;;3.05;;
19621;SDS011;9958;33.196;-97.114;2023-08-30T01:14:38;3.97;;;3.10;;
19621;SDS011;9958;33.196;-97.114;2023-08-30T01:17:14;5.40;;;3.70;;
19621;SDS011;9958;33.196;-97.114;2023-08-30T01:19:47;5.15;;;3.20;;
19621;SDS011;9958;33.196;-97.114;2023-08-30T01:22:23;4.65;;;3.55;;
19621;SDS011;9958;33.196;-97.114;2023-08-30T01:25:08;4.97;;;3.25;;
19621;SDS011;9958;33.196;-97.114;2023-08-30T01:27:44;4.18;;;3.28;;
19621;SDS011;9958;33.196;-97.114;2023-08-30T01:30:14;3.88;;;3.13;;
19621;SDS011;9958;33.196;-97.114;2023-08-30T01:32:44;3.88;;;3.35;;
19621;SDS011;9958;33.196;-97.114;2023-08-30T01:35:13;6.32;;;3.50;;
19621;SDS011;9958;33.196;-97.114;2023-08-30T01:37:44;4.13;;;3.38;;
19621;SDS011;9958;33.196;-97.114;2023-08-30T01:40:14;7.30;;;3.63;;
19621;SDS011;9958;33.196;-97.114;2023-08-30T01:42:45;4.80;;;3.35;;
19621;SDS011;9958;33.196;-97.114;2023-08-30T01:45:15;4.35;;;3.40;;
19621;SDS011;9958;33.196;-97.114;2023-08-30T01:47:44;5.18;;;3.60;;
19621;SDS011;9958;33.196;-97.114;2023-08-30T01:50:13;4.63;;;3.20;;
19621;SDS011;9958;33.196;-97.114;2023-08-30T01:52:42;4.53;;;3.15;;
19621;SDS011;9958;33.196;-97.114;2023-08-30T01:55:10;4.57;;;2.97;;
19621;SDS011;9958;33.196;-97.114;2023-08-30T01:57:40;4.97;;;3.58;;
19621;SDS011;9958;33.196;-97.114;2023-08-30T02:00:11;8.43;;;3.80;;
19621;SDS011;9958;33.196;-97.114;2023-08-30T02:02:40;3.85;;;3.00;;
19621;SDS011;9958;33.196;-97.114;2023-08-30T02:05:09;5.55;;;3.60;;
19621;SDS011;9958;33.196;-97.114;2023-08-30T02:07:40;5.07;;;3.80;;
19621;SDS011;9958;33.196;-97.114;2023-08-30T02:10:21;4.50;;;3.45;;
19621;SDS011;9958;33.196;-97.114;2023-08-30T02:12:52;5.13;;;3.20;;
19621;SDS011;9958;33.196;-97.114;2023-08-30T02:15:24;3.55;;;3.25;;
19621;SDS011;9958;33.196;-97.114;2023-08-30T02:17:54;4.15;;;3.30;;
19621;SDS011;9958;33.196;-97.114;2023-08-30T02:20:23;4.53;;;3.10;;
19621;SDS011;9958;33.196;-97.114;2023-08-30T02:22:51;5.18;;;3.42;;
19621;SDS011;9958;33.196;-97.114;2023-08-30T02:25:21;4.25;;;3.67;;
19621;SDS011;9958;33.196;-97.114;2023-08-30T02:27:50;3.42;;;2.92;;
19621;SDS011;9958;33.196;-97.114;2023-08-30T02:30:19;6.88;;;3.00;;
19621;SDS011;9958;33.196;-97.114;2023-08-30T02:32:49;4.45;;;3.47;;
19621;SDS011;9958;33.196;-97.114;2023-08-30T02:35:17;5.32;;;3.67;;
19621;SDS011;9958;33.196;-97.114;2023-08-30T02:37:46;3.47;;;2.90;;
19621;SDS011;9958;33.196;-97.114;2023-08-30T02:40:14;5.53;;;3.42;;
19621;SDS011;9958;33.196;-97.114;2023-08-30T02:42:42;4.53;;;3.67;;
19621;SDS011;9958;33.196;-97.114;2023-08-30T02:45:11;6.32;;;3.90;;
19621;SDS011;9958;33.196;-97.114;2023-08-30T02:47:39;4.93;;;3.63;;
19621;SDS011;9958;33.196;-97.114;2023-08-30T02:50:09;3.90;;;3.47;;
19621;SDS011;9958;33.196;-97.114;2023-08-30T02:52:37;5.00;;;3.97;;
19621;SDS011;9958;33.196;-97.114;2023-08-30T02:55:06;3.92;;;3.53;;
19621;SDS011;9958;33.196;-97.114;2023-08-30T02:57:34;4.13;;;3.42;;
19621;SDS011;9958;33.196;-97.114;2023-08-30T03:00:05;5.50;;;3.35;;
19621;SDS011;9958;33.196;-97.114;2023-08-30T03:02:34;5.05;;;3.30;;
19621;SDS011;9958;33.196;-97.114;2023-08-30T03:05:02;4.82;;;3.80;;
19621;SDS011;9958;33.196;-97.114;2023-08-30T03:07:33;5.50;;;3.50;;
19621;SDS011;9958;33.196;-97.114;2023-08-30T03:10:01;4.68;;;3.70;;
19621;SDS011;9958;33.196;-97.114;2023-08-30T03:12:30;4.60;;;3.60;;
19621;SDS011;9958;33.196;-97.114;2023-08-30T03:14:58;3.90;;;3.50;;
19621;SDS011;9958;33.196;-97.114;2023-08-30T03:17:27;4.43;;;3.40;;
19621;SDS011;9958;33.196;-97.114;2023-08-30T03:19:55;4.72;;;3.40;;
19621;SDS011;9958;33.196;-97.114;2023-08-30T03:22:23;5.35;;;3.80;;
19621;SDS011;9958;33.196;-97.114;2023-08-30T03:24:53;5.35;;;3.65;;
19621;SDS011;9958;33.196;-97.114;2023-08-30T03:27:21;3.92;;;3.50;;
19621;SDS011;9958;33.196;-97.114;2023-08-30T03:29:50;4.05;;;3.28;;
19621;SDS011;9958;33.196;-97.114;2023-08-30T03:32:18;4.22;;;3.65;;
19621;SDS011;9958;33.196;-97.114;2023-08-30T03:34:47;5.80;;;3.55;;
19621;SDS011;9958;33.196;-97.114;2023-08-30T03:37:16;3.95;;;3.55;;
19621;SDS011;9958;33.196;-97.114;2023-08-30T03:39:44;6.00;;;4.13;;
19621;SDS011;9958;33.196;-97.114;2023-08-30T03:42:14;4.55;;;3.88;;
19621;SDS011;9958;33.196;-97.114;2023-08-30T03:44:43;5.47;;;3.70;;
19621;SDS011;9958;33.196;-97.114;2023-08-30T03:47:11;5.20;;;3.22;;
19621;SDS011;9958;33.196;-97.114;2023-08-30T03:49:39;3.92;;;3.42;;
19621;SDS011;9958;33.196;-97.114;2023-08-30T03:52:08;5.57;;;3.65;;
19621;SDS011;9958;33.196;-97.114;2023-08-30T03:54:36;4.80;;;3.80;;
19621;SDS011;9958;33.196;-97.114;2023-08-30T03:57:04;5.05;;;3.67;;
19621;SDS011;9958;33.196;-97.114;2023-08-30T03:59:34;6.47;;;3.60;;
19621;SDS011;9958;33.196;-97.114;2023-08-30T04:02:03;5.05;;;3.88;;
19621;SDS011;9958;33.196;-97.114;2023-08-30T04:04:31;4.53;;;3.65;;
19621;SDS011;9958;33.196;-97.114;2023-08-30T04:06:59;4.80;;;3.97;;
19621;SDS011;9958;33.196;-97.114;2023-08-30T04:09:28;8.15;;;4.43;;
19621;SDS011;9958;33.196;-97.114;2023-08-30T04:11:56;4.72;;;3.65;;
19621;SDS011;9958;33.196;-97.114;2023-08-30T04:14:26;4.97;;;3.80;;
19621;SDS011;9958;33.196;-97.114;2023-08-30T04:16:55;6.13;;;4.10;;
19621;SDS011;9958;33.196;-97.114;2023-08-30T04:19:24;4.53;;;3.67;;
19621;SDS011;9958;33.196;-97.114;2023-08-30T04:21:52;4.95;;;3.83;;
19621;SDS011;9958;33.196;-97.114;2023-08-30T04:24:20;5.95;;;4.53;;
19621;SDS011;9958;33.196;-97.114;2023-08-30T04:26:49;4.55;;;3.53;;
19621;SDS011;9958;33.196;-97.114;2023-08-30T04:29:18;5.68;;;3.92;;
19621;SDS011;9958;33.196;-97.114;2023-08-30T04:31:47;5.15;;;3.80;;
19621;SDS011;9958;33.196;-97.114;2023-08-30T04:34:16;4.45;;;3.92;;
19621;SDS011;9958;33.196;-97.114;2023-08-30T04:36:45;7.47;;;3.78;;
19621;SDS011;9958;33.196;-97.114;2023-08-30T04:39:13;5.03;;;4.00;;
19621;SDS011;9958;33.196;-97.114;2023-08-30T04:41:41;7.47;;;4.10;;
19621;SDS011;9958;33.196;-97.114;2023-08-30T04:44:10;4.70;;;3.90;;
19621;SDS011;9958;33.196;-97.114;2023-08-30T04:46:38;7.00;;;3.65;;
19621;SDS011;9958;33.196;-97.114;2023-08-30T04:49:06;4.57;;;3.72;;
19621;SDS011;9958;33.196;-97.114;2023-08-30T04:51:36;5.43;;;3.88;;
19621;SDS011;9958;33.196;-97.114;2023-08-30T04:54:05;5.88;;;3.92;;
19621;SDS011;9958;33.196;-97.114;2023-08-30T04:56:33;6.13;;;4.10;;
19621;SDS011;9958;33.196;-97.114;2023-08-30T04:59:01;5.35;;;4.05;;
19621;SDS011;9958;33.196;-97.114;2023-08-30T05:01:30;4.72;;;3.85;;
19621;SDS011;9958;33.196;-97.114;2023-08-30T05:03:58;5.38;;;3.72;;
19621;SDS011;9958;33.196;-97.114;2023-08-30T05:06:27;6.65;;;4.03;;
19621;SDS011;9958;33.196;-97.114;2023-08-30T05:08:56;4.00;;;3.60;;
19621;SDS011;9958;33.196;-97.114;2023-08-30T05:11:25;7.10;;;4.15;;
19621;SDS011;9958;33.196;-97.114;2023-08-30T05:13:54;5.25;;;3.85;;
19621;SDS011;9958;33.196;-97.114;2023-08-30T05:16:22;5.22;;;3.65;;
19621;SDS011;9958;33.196;-97.114;2023-08-30T05:18:50;4.45;;;3.95;;
19621;SDS011;9958;33.196;-97.114;2023-08-30T05:21:19;5.38;;;3.72;;
19621;SDS011;9958;33.196;-97.114;2023-08-30T05:23:47;3.92;;;3.50;;
19621;SDS011;9958;33.196;-97.114;2023-08-30T05:26:17;5.90;;;3.53;;
19621;SDS011;9958;33.196;-97.114;2023-08-30T05:28:46;5.35;;;3.65;;
19621;SDS011;9958;33.196;-97.114;2023-08-30T05:31:14;8.07;;;4.30;;
19621;SDS011;9958;33.196;-97.114;2023-08-30T05:33:42;5.95;;;3.90;;
19621;SDS011;9958;33.196;-97.114;2023-08-30T05:36:11;6.68;;;4.05;;
19621;SDS011;9958;33.196;-97.114;2023-08-30T05:38:39;10.27;;;4.05;;
19621;SDS011;9958;33.196;-97.114;2023-08-30T05:41:07;5.05;;;3.70;;
19621;SDS011;9958;33.196;-97.114;2023-08-30T05:43:37;5.50;;;3.85;;
19621;SDS011;9958;33.196;-97.114;2023-08-30T05:46:06;4.57;;;3.67;;
19621;SDS011;9958;33.196;-97.114;2023-08-30T05:48:40;4.10;;;3.70;;
19621;SDS011;9958;33.196;-97.114;2023-08-30T05:51:08;6.13;;;3.65;;
19621;SDS011;9958;33.196;-97.114;2023-08-30T05:53:36;5.22;;;4.07;;
19621;SDS011;9958;33.196;-97.114;2023-08-30T05:56:05;5.38;;;3.95;;
19621;SDS011;9958;33.196;-97.114;2023-08-30T05:58:33;3.65;;;3.20;;
19621;SDS011;9958;33.196;-97.114;2023-08-30T06:01:05;5.88;;;3.88;;
19621;SDS011;9958;33.196;-97.114;2023-08-30T06:03:33;6.25;;;4.22;;
19621;SDS011;9958;33.196;-97.114;2023-08-30T06:06:01;7.03;;;3.85;;
19621;SDS011;9958;33.196;-97.114;2023-08-30T06:08:30;3.47;;;3.17;;
19621;SDS011;9958;33.196;-97.114;2023-08-30T06:10:58;4.38;;;3.67;;
19621;SDS011;9958;33.196;-97.114;2023-08-30T06:13:26;4.65;;;3.50;;
19621;SDS011;9958;33.196;-97.114;2023-08-30T06:15:55;4.32;;;3.72;;
19621;SDS011;9958;33.196;-97.114;2023-08-30T06:18:26;4.50;;;3.60;;
19621;SDS011;9958;33.196;-97.114;2023-08-30T06:20:56;5.40;;;4.00;;
19621;SDS011;9958;33.196;-97.114;2023-08-30T06:23:25;5.15;;;3.60;;
19621;SDS011;9958;33.196;-97.114;2023-08-30T06:25:53;4.38;;;3.45;;
19621;SDS011;9958;33.196;-97.114;2023-08-30T06:28:22;3.65;;;3.33;;
19621;SDS011;9958;33.196;-97.114;2023-08-30T06:30:51;7.38;;;3.85;;
19621;SDS011;9958;33.196;-97.114;2023-08-30T06:33:19;5.05;;;3.63;;
19621;SDS011;9958;33.196;-97.114;2023-08-30T06:35:49;4.68;;;3.97;;
19621;SDS011;9958;33.196;-97.114;2023-08-30T06:38:18;4.22;;;3.53;;
19621;SDS011;9958;33.196;-97.114;2023-08-30T06:40:47;5.57;;;3.58;;
19621;SDS011;9958;33.196;-97.114;2023-08-30T06:43:16;5.60;;;3.63;;
19621;SDS011;9958;33.196;-97.114;2023-08-30T06:45:44;4.25;;;3.72;;
19621;SDS011;9958;33.196;-97.114;2023-08-30T06:48:13;5.75;;;3.97;;
19621;SDS011;9958;33.196;-97.114;2023-08-30T06:50:41;4.68;;;3.38;;
19621;SDS011;9958;33.196;-97.114;2023-08-30T06:53:11;3.70;;;3.30;;
19621;SDS011;9958;33.196;-97.114;2023-08-30T06:55:40;5.65;;;4.07;;
19621;SDS011;9958;33.196;-97.114;2023-08-30T06:58:08;5.35;;;3.85;;
19621;SDS011;9958;33.196;-97.114;2023-08-30T07:00:37;4.00;;;3.60;;
19621;SDS011;9958;33.196;-97.114;2023-08-30T07:03:05;5.25;;;3.60;;
19621;SDS011;9958;33.196;-97.114;2023-08-30T07:05:33;4.88;;;3.63;;
19621;SDS011;9958;33.196;-97.114;2023-08-30T07:08:04;4.25;;;3.85;;
19621;SDS011;9958;33.196;-97.114;2023-08-30T07:10:35;6.97;;;3.95;;
19621;SDS011;9958;33.196;-97.114;2023-08-30T07:13:03;5.60;;;3.75;;
19621;SDS011;9958;33.196;-97.114;2023-08-30T07:15:35;5.40;;;3.60;;
19621;SDS011;9958;33.196;-97.114;2023-08-30T07:18:04;7.13;;;4.13;;
19621;SDS011;9958;33.196;-97.114;2023-08-30T07:20:32;7.97;;;4.20;;
19621;SDS011;9958;33.196;-97.114;2023-08-30T07:23:02;4.28;;;3.70;;
19621;SDS011;9958;33.196;-97.114;2023-08-30T07:25:30;7.10;;;3.67;;
19621;SDS011;9958;33.196;-97.114;2023-08-30T07:28:03;5.68;;;3.53;;
19621;SDS011;9958;33.196;-97.114;2023-08-30T07:30:32;7.22;;;4.03;;
19621;SDS011;9958;33.196;-97.114;2023-08-30T07:33:01;4.38;;;3.78;;
19621;SDS011;9958;33.196;-97.114;2023-08-30T07:35:30;4.03;;;3.42;;
19621;SDS011;9958;33.196;-97.114;2023-08-30T07:37:58;6.88;;;3.97;;
19621;SDS011;9958;33.196;-97.114;2023-08-30T07:40:26;5.72;;;3.67;;
19621;SDS011;9958;33.196;-97.114;2023-08-30T07:42:55;5.15;;;3.65;;
19621;SDS011;9958;33.196;-97.114;2023-08-30T07:45:24;5.65;;;3.40;;
19621;SDS011;9958;33.196;-97.114;2023-08-30T07:47:53;5.32;;;4.07;;
19621;SDS011;9958;33.196;-97.114;2023-08-30T07:50:21;4.63;;;3.55;;
19621;SDS011;9958;33.196;-97.114;2023-08-30T07:52:49;4.47;;;3.72;;
19621;SDS011;9958;33.196;-97.114;2023-08-30T07:55:18;6.40;;;4.28;;
19621;SDS011;9958;33.196;-97.114;2023-08-30T07:57:46;4.30;;;3.55;;
19621;SDS011;9958;33.196;-97.114;2023-08-30T08:00:14;7.53;;;3.97;;
19621;SDS011;9958;33.196;-97.114;2023-08-30T08:02:45;4.28;;;3.60;;
19621;SDS011;9958;33.196;-97.114;2023-08-30T08:05:13;4.78;;;3.42;;
19621;SDS011;9958;33.196;-97.114;2023-08-30T08:07:42;6.25;;;3.88;;
19621;SDS011;9958;33.196;-97.114;2023-08-30T08:10:10;7.03;;;3.38;;
19621;SDS011;9958;33.196;-97.114;2023-08-30T08:12:39;4.28;;;3.47;;
19621;SDS011;9958;33.196;-97.114;2023-08-30T08:15:07;5.28;;;3.70;;
19621;SDS011;9958;33.196;-97.114;2023-08-30T08:17:36;7.07;;;4.00;;
19621;SDS011;9958;33.196;-97.114;2023-08-30T08:20:06;4.80;;;3.90;;
19621;SDS011;9958;33.196;-97.114;2023-08-30T08:22:35;6.18;;;3.35;;
19621;SDS011;9958;33.196;-97.114;2023-08-30T08:25:04;7.20;;;4.13;;
19621;SDS011;9958;33.196;-97.114;2023-08-30T08:27:35;4.90;;;3.63;;
19621;SDS011;9958;33.196;-97.114;2023-08-30T08:30:04;4.85;;;3.42;;
19621;SDS011;9958;33.196;-97.114;2023-08-30T08:32:33;5.68;;;3.78;;
19621;SDS011;9958;33.196;-97.114;2023-08-30T08:35:01;6.13;;;4.68;;
19621;SDS011;9958;33.196;-97.114;2023-08-30T08:37:31;7.22;;;4.07;;
19621;SDS011;9958;33.196;-97.114;2023-08-30T08:40:00;5.35;;;3.88;;
19621;SDS011;9958;33.196;-97.114;2023-08-30T08:42:34;4.82;;;3.72;;
19621;SDS011;9958;33.196;-97.114;2023-08-30T08:45:03;5.80;;;4.35;;
19621;SDS011;9958;33.196;-97.114;2023-08-30T08:47:32;5.97;;;4.20;;
19621;SDS011;9958;33.196;-97.114;2023-08-30T08:50:00;5.80;;;3.92;;
19621;SDS011;9958;33.196;-97.114;2023-08-30T08:52:29;4.03;;;3.60;;
19621;SDS011;9958;33.196;-97.114;2023-08-30T08:54:59;4.72;;;3.55;;
19621;SDS011;9958;33.196;-97.114;2023-08-30T08:57:28;4.70;;;4.20;;
19621;SDS011;9958;33.196;-97.114;2023-08-30T08:59:58;6.22;;;4.00;;
19621;SDS011;9958;33.196;-97.114;2023-08-30T09:02:26;5.28;;;4.13;;
19621;SDS011;9958;33.196;-97.114;2023-08-30T09:04:55;4.57;;;3.63;;
19621;SDS011;9958;33.196;-97.114;2023-08-30T09:07:26;4.85;;;4.18;;
19621;SDS011;9958;33.196;-97.114;2023-08-30T09:09:57;5.00;;;4.07;;
19621;SDS011;9958;33.196;-97.114;2023-08-30T09:12:26;5.25;;;3.72;;
19621;SDS011;9958;33.196;-97.114;2023-08-30T09:14:54;4.35;;;3.80;;
19621;SDS011;9958;33.196;-97.114;2023-08-30T09:17:23;5.07;;;3.90;;
19621;SDS011;9958;33.196;-97.114;2023-08-30T09:20:06;4.45;;;3.88;;
19621;SDS011;9958;33.196;-97.114;2023-08-30T09:22:38;4.63;;;3.83;;
19621;SDS011;9958;33.196;-97.114;2023-08-30T09:25:09;5.72;;;3.75;;
19621;SDS011;9958;33.196;-97.114;2023-08-30T09:27:39;5.93;;;3.85;;
19621;SDS011;9958;33.196;-97.114;2023-08-30T09:30:08;6.25;;;4.07;;
19621;SDS011;9958;33.196;-97.114;2023-08-30T09:32:40;6.07;;;3.58;;
19621;SDS011;9958;33.196;-97.114;2023-08-30T09:35:10;5.38;;;3.95;;
19621;SDS011;9958;33.196;-97.114;2023-08-30T09:37:38;6.82;;;3.60;;
19621;SDS011;9958;33.196;-97.114;2023-08-30T09:40:09;5.07;;;4.25;;
19621;SDS011;9958;33.196;-97.114;2023-08-30T09:42:40;4.90;;;3.40;;
19621;SDS011;9958;33.196;-97.114;2023-08-30T09:45:17;4.50;;;4.10;;
19621;SDS011;9958;33.196;-97.114;2023-08-30T09:47:47;5.18;;;3.88;;
19621;SDS011;9958;33.196;-97.114;2023-08-30T09:50:16;6.82;;;4.65;;
19621;SDS011;9958;33.196;-97.114;2023-08-30T09:52:46;5.38;;;3.88;;
19621;SDS011;9958;33.196;-97.114;2023-08-30T09:55:16;4.35;;;3.90;;
19621;SDS011;9958;33.196;-97.114;2023-08-30T09:57:46;6.47;;;4.05;;
19621;SDS011;9958;33.196;-97.114;2023-08-30T10:00:15;5.20;;;4.05;;
19621;SDS011;9958;33.196;-97.114;2023-08-30T10:02:44;6.47;;;3.88;;
19621;SDS011;9958;33.196;-97.114;2023-08-30T10:05:13;5.13;;;4.07;;
19621;SDS011;9958;33.196;-97.114;2023-08-30T10:07:42;7.35;;;3.78;;
19621;SDS011;9958;33.196;-97.114;2023-08-30T10:10:12;5.63;;;3.97;;
19621;SDS011;9958;33.196;-97.114;2023-08-30T10:12:41;6.10;;;3.85;;
19621;SDS011;9958;33.196;-97.114;2023-08-30T10:15:14;7.13;;;3.90;;
19621;SDS011;9958;33.196;-97.114;2023-08-30T10:17:44;4.53;;;3.72;;
19621;SDS011;9958;33.196;-97.114;2023-08-30T10:20:13;6.40;;;4.45;;
19621;SDS011;9958;33.196;-97.114;2023-08-30T10:22:41;4.30;;;3.90;;
19621;SDS011;9958;33.196;-97.114;2023-08-30T10:25:13;4.60;;;3.90;;
19621;SDS011;9958;33.196;-97.114;2023-08-30T10:27:48;6.70;;;3.92;;
19621;SDS011;9958;33.196;-97.114;2023-08-30T10:30:18;5.90;;;3.83;;
19621;SDS011;9958;33.196;-97.114;2023-08-30T10:32:48;7.63;;;4.88;;
19621;SDS011;9958;33.196;-97.114;2023-08-30T10:35:17;5.53;;;3.83;;
19621;SDS011;9958;33.196;-97.114;2023-08-30T10:37:53;9.23;;;4.50;;
19621;SDS011;9958;33.196;-97.114;2023-08-30T10:40:22;7.13;;;4.28;;
19621;SDS011;9958;33.196;-97.114;2023-08-30T10:43:02;17.55;;;4.85;;
19621;SDS011;9958;33.196;-97.114;2023-08-30T10:45:31;9.60;;;4.20;;
19621;SDS011;9958;33.196;-97.114;2023-08-30T10:47:59;6.78;;;4.25;;
19621;SDS011;9958;33.196;-97.114;2023-08-30T10:50:29;6.35;;;4.20;;
19621;SDS011;9958;33.196;-97.114;2023-08-30T10:52:58;8.05;;;4.10;;
19621;SDS011;9958;33.196;-97.114;2023-08-30T10:55:27;6.07;;;3.90;;
19621;SDS011;9958;33.196;-97.114;2023-08-30T10:57:59;5.55;;;4.00;;
19621;SDS011;9958;33.196;-97.114;2023-08-30T11:00:29;6.25;;;3.97;;
19621;SDS011;9958;33.196;-97.114;2023-08-30T11:02:59;7.18;;;4.25;;
19621;SDS011;9958;33.196;-97.114;2023-08-30T11:05:29;9.10;;;4.32;;
19621;SDS011;9958;33.196;-97.114;2023-08-30T11:07:58;6.22;;;3.95;;
19621;SDS011;9958;33.196;-97.114;2023-08-30T11:10:27;7.78;;;4.28;;
19621;SDS011;9958;33.196;-97.114;2023-08-30T11:12:56;9.55;;;4.50;;
19621;SDS011;9958;33.196;-97.114;2023-08-30T11:15:24;6.10;;;4.07;;
19621;SDS011;9958;33.196;-97.114;2023-08-30T11:18:03;6.47;;;4.28;;
19621;SDS011;9958;33.196;-97.114;2023-08-30T11:20:32;6.10;;;4.20;;
19621;SDS011;9958;33.196;-97.114;2023-08-30T11:23:00;9.07;;;4.30;;
19621;SDS011;9958;33.196;-97.114;2023-08-30T11:25:30;5.32;;;3.92;;
19621;SDS011;9958;33.196;-97.114;2023-08-30T11:28:02;8.18;;;3.92;;
19621;SDS011;9958;33.196;-97.114;2023-08-30T11:30:31;6.00;;;4.10;;
19621;SDS011;9958;33.196;-97.114;2023-08-30T11:32:59;6.35;;;4.35;;
19621;SDS011;9958;33.196;-97.114;2023-08-30T11:35:31;6.82;;;4.25;;
19621;SDS011;9958;33.196;-97.114;2023-08-30T11:37:59;5.50;;;4.35;;
19621;SDS011;9958;33.196;-97.114;2023-08-30T11:40:28;6.75;;;4.03;;
19621;SDS011;9958;33.196;-97.114;2023-08-30T11:42:56;9.55;;;4.80;;
19621;SDS011;9958;33.196;-97.114;2023-08-30T11:45:24;7.47;;;4.55;;
19621;SDS011;9958;33.196;-97.114;2023-08-30T11:47:53;7.63;;;5.05;;
19621;SDS011;9958;33.196;-97.114;2023-08-30T11:50:21;5.55;;;3.95;;
19621;SDS011;9958;33.196;-97.114;2023-08-30T11:52:51;6.82;;;4.22;;
19621;SDS011;9958;33.196;-97.114;2023-08-30T11:55:20;5.35;;;4.13;;
19621;SDS011;9958;33.196;-97.114;2023-08-30T11:57:49;6.53;;;4.38;;
19621;SDS011;9958;33.196;-97.114;2023-08-30T12:00:18;5.22;;;4.10;;
19621;SDS011;9958;33.196;-97.114;2023-08-30T12:02:47;6.85;;;4.47;;
19621;SDS011;9958;33.196;-97.114;2023-08-30T12:05:15;5.05;;;4.32;;
19621;SDS011;9958;33.196;-97.114;2023-08-30T12:07:45;5.47;;;3.90;;
19621;SDS011;9958;33.196;-97.114;2023-08-30T12:10:17;10.10;;;4.70;;
19621;SDS011;9958;33.196;-97.114;2023-08-30T12:12:46;7.55;;;4.97;;
19621;SDS011;9958;33.196;-97.114;2023-08-30T12:15:15;5.85;;;4.53;;
19621;SDS011;9958;33.196;-97.114;2023-08-30T12:17:43;6.05;;;4.35;;
19621;SDS011;9958;33.196;-97.114;2023-08-30T12:20:15;7.28;;;3.97;;
19621;SDS011;9958;33.196;-97.114;2023-08-30T12:22:45;5.22;;;4.10;;
19621;SDS011;9958;33.196;-97.114;2023-08-30T12:25:18;9.27;;;4.55;;
19621;SDS011;9958;33.196;-97.114;2023-08-30T12:27:48;7.22;;;4.53;;
19621;SDS011;9958;33.196;-97.114;2023-08-30T12:30:17;10.43;;;4.55;;
19621;SDS011;9958;33.196;-97.114;2023-08-30T12:32:46;8.35;;;4.78;;
19621;SDS011;9958;33.196;-97.114;2023-08-30T12:35:15;9.00;;;4.88;;
19621;SDS011;9958;33.196;-97.114;2023-08-30T12:37:43;7.40;;;4.38;;
19621;SDS011;9958;33.196;-97.114;2023-08-30T12:40:12;12.48;;;4.93;;
19621;SDS011;9958;33.196;-97.114;2023-08-30T12:42:42;5.20;;;3.97;;
19621;SDS011;9958;33.196;-97.114;2023-08-30T12:45:10;7.00;;;4.38;;
19621;SDS011;9958;33.196;-97.114;2023-08-30T12:47:38;6.15;;;4.30;;
19621;SDS011;9958;33.196;-97.114;2023-08-30T12:50:07;7.88;;;4.30;;
19621;SDS011;9958;33.196;-97.114;2023-08-30T12:52:35;7.97;;;4.57;;
19621;SDS011;9958;33.196;-97.114;2023-08-30T12:55:04;6.75;;;3.72;;
19621;SDS011;9958;33.196;-97.114;2023-08-30T12:57:33;4.13;;;3.72;;
19621;SDS011;9958;33.196;-97.114;2023-08-30T13:00:03;6.00;;;4.68;;
19621;SDS011;9958;33.196;-97.114;2023-08-30T13:02:32;5.93;;;4.15;;
19621;SDS011;9958;33.196;-97.114;2023-08-30T13:05:00;5.10;;;4.38;;
19621;SDS011;9958;33.196;-97.114;2023-08-30T13:07:29;6.30;;;4.05;;
19621;SDS011;9958;33.196;-97.114;2023-08-30T13:09:57;6.68;;;4.35;;
19621;SDS011;9958;33.196;-97.114;2023-08-30T13:12:26;6.72;;;4.22;;
19621;SDS011;9958;33.196;-97.114;2023-08-30T13:14:54;8.23;;;4.13;;
19621;SDS011;9958;33.196;-97.114;2023-08-30T13:17:24;8.00;;;4.57;;
19621;SDS011;9958;33.196;-97.114;2023-08-30T13:19:52;6.13;;;3.75;;
19621;SDS011;9958;33.196;-97.114;2023-08-30T13:22:21;7.75;;;4.30;;
19621;SDS011;9958;33.196;-97.114;2023-08-30T13:24:49;5.40;;;4.40;;
19621;SDS011;9958;33.196;-97.114;2023-08-30T13:27:17;8.30;;;4.00;;
19621;SDS011;9958;33.196;-97.114;2023-08-30T13:29:46;5.40;;;4.38;;
19621;SDS011;9958;33.196;-97.114;2023-08-30T13:32:14;9.00;;;3.95;;
19621;SDS011;9958;33.196;-97.114;2023-08-30T13:34:44;7.88;;;4.18;;
19621;SDS011;9958;33.196;-97.114;2023-08-30T13:37:13;5.78;;;4.18;;
19621;SDS011;9958;33.196;-97.114;2023-08-30T13:39:41;8.55;;;4.10;;
19621;SDS011;9958;33.196;-97.114;2023-08-30T13:42:09;7.43;;;4.97;;
19621;SDS011;9958;33.196;-97.114;2023-08-30T13:44:38;7.72;;;4.72;;
19621;SDS011;9958;33.196;-97.114;2023-08-30T13:47:07;7.80;;;4.10;;
19621;SDS011;9958;33.196;-97.114;2023-08-30T13:49:36;7.22;;;4.22;;
19621;SDS011;9958;33.196;-97.114;2023-08-30T13:52:06;7.25;;;4.20;;
19621;SDS011;9958;33.196;-97.114;2023-08-30T13:54:34;6.25;;;4.50;;
19621;SDS011;9958;33.196;-97.114;2023-08-30T13:57:02;4.88;;;4.28;;
19621;SDS011;9958;33.196;-97.114;2023-08-30T13:59:31;7.75;;;4.22;;
19621;SDS011;9958;33.196;-97.114;2023-08-30T14:02:01;5.90;;;4.10;;
19621;SDS011;9958;33.196;-97.114;2023-08-30T14:04:29;9.20;;;4.65;;
19621;SDS011;9958;33.196;-97.114;2023-08-30T14:07:01;5.22;;;4.30;;
19621;SDS011;9958;33.196;-97.114;2023-08-30T14:09:31;4.72;;;3.92;;
19621;SDS011;9958;33.196;-97.114;2023-08-30T14:12:00;6.65;;;4.20;;
19621;SDS011;9958;33.196;-97.114;2023-08-30T14:14:30;4.63;;;3.95;;
19621;SDS011;9958;33.196;-97.114;2023-08-30T14:16:58;7.95;;;4.18;;
19621;SDS011;9958;33.196;-97.114;2023-08-30T14:19:26;5.97;;;4.25;;
19621;SDS011;9958;33.196;-97.114;2023-08-30T14:21:55;9.25;;;4.60;;
19621;SDS011;9958;33.196;-97.114;2023-08-30T14:24:23;4.55;;;4.07;;
19621;SDS011;9958;33.196;-97.114;2023-08-30T14:26:53;6.63;;;4.78;;
19621;SDS011;9958;33.196;-97.114;2023-08-30T14:29:22;5.80;;;4.65;;
19621;SDS011;9958;33.196;-97.114;2023-08-30T14:31:50;9.18;;;4.40;;
19621;SDS011;9958;33.196;-97.114;2023-08-30T14:34:19;6.78;;;4.32;;
19621;SDS011;9958;33.196;-97.114;2023-08-30T14:36:48;5.47;;;4.03;;
19621;SDS011;9958;33.196;-97.114;2023-08-30T14:39:16;4.45;;;3.97;;
19621;SDS011;9958;33.196;-97.114;2023-08-30T14:41:45;9.35;;;4.28;;
19621;SDS011;9958;33.196;-97.114;2023-08-30T14:44:15;7.43;;;4.43;;